Terminal Aerodrome Forecast
Issued by NWS Boston, MA

Home | Current Version | Previous Version | Text Only | Print | Product List | Glossary On
Versions: 1 2 3 4 5 6 7 8 9 10 11 12 13 14 15 16 17 18 19 20 21 22
000
FTUS41 KBOX 310852 AAA
TAFBDL
TAF AMD
KBDL 310852Z 3109/0112 00000KT P6SM SCT060
     FM311500 04005KT P6SM BKN060
     FM010300 03005KT P6SM OVC025=

USA.gov is the U.S. government's official web portal to all federal, state and local government web resources and services.